sensor_id;sensor_type;location;lat;lon;timestamp;pressure;altitude;pressure_sealevel;temperature;humidity
44144;BME280;43510;51.920;4.492;2022-08-21T00:02:23;68212.06;;;21.26;84.05
44144;BME280;43510;51.920;4.492;2022-08-21T00:04:50;68213.63;;;21.25;84.42
44144;BME280;43510;51.920;4.492;2022-08-21T00:07:16;68214.03;;;21.23;84.52
44144;BME280;43510;51.920;4.492;2022-08-21T00:09:43;68205.31;;;21.20;84.64
44144;BME280;43510;51.920;4.492;2022-08-21T00:12:09;68201.38;;;21.16;84.79
44144;BME280;43510;51.920;4.492;2022-08-21T00:14:35;68208.97;;;21.18;85.10
44144;BME280;43510;51.920;4.492;2022-08-21T00:17:01;68204.03;;;21.16;84.81
44144;BME280;43510;51.920;4.492;2022-08-21T00:19:27;68207.28;;;21.17;84.89
44144;BME280;43510;51.920;4.492;2022-08-21T00:21:53;68200.50;;;21.11;84.47
44144;BME280;43510;51.920;4.492;2022-08-21T00:24:20;68201.06;;;21.11;83.86
44144;BME280;43510;51.920;4.492;2022-08-21T00:26:46;68190.66;;;21.07;84.03
44144;BME280;43510;51.920;4.492;2022-08-21T00:29:13;68193.75;;;21.05;83.60
44144;BME280;43510;51.920;4.492;2022-08-21T00:31:39;68186.59;;;21.01;83.68
44144;BME280;43510;51.920;4.492;2022-08-21T00:34:06;68182.22;;;20.99;83.55
44144;BME280;43510;51.920;4.492;2022-08-21T00:36:33;68184.88;;;20.99;83.89
44144;BME280;43510;51.920;4.492;2022-08-21T00:38:58;68186.44;;;20.98;83.26
44144;BME280;43510;51.920;4.492;2022-08-21T00:41:24;68180.53;;;20.98;83.11
44144;BME280;43510;51.920;4.492;2022-08-21T00:43:49;68183.06;;;20.95;82.60
44144;BME280;43510;51.920;4.492;2022-08-21T00:46:15;68182.78;;;21.00;82.12
44144;BME280;43510;51.920;4.492;2022-08-21T00:48:40;68182.09;;;20.97;81.55
44144;BME280;43510;51.920;4.492;2022-08-21T00:51:10;68184.75;;;20.97;81.41
44144;BME280;43510;51.920;4.492;2022-08-21T00:53:40;68182.66;;;20.97;81.04
44144;BME280;43510;51.920;4.492;2022-08-21T00:56:09;68182.66;;;20.97;81.25
44144;BME280;43510;51.920;4.492;2022-08-21T00:58:35;68172.69;;;20.91;81.21
44144;BME280;43510;51.920;4.492;2022-08-21T01:01:04;68175.19;;;20.88;81.35
44144;BME280;43510;51.920;4.492;2022-08-21T01:03:30;68175.75;;;20.89;81.27
44144;BME280;43510;51.920;4.492;2022-08-21T01:05:55;68177.28;;;20.88;81.33
44144;BME280;43510;51.920;4.492;2022-08-21T01:08:21;68174.22;;;20.90;81.39
44144;BME280;43510;51.920;4.492;2022-08-21T01:10:47;68170.25;;;20.86;80.83
44144;BME280;43510;51.920;4.492;2022-08-21T01:13:15;68173.50;;;20.87;80.71
44144;BME280;43510;51.920;4.492;2022-08-21T01:15:44;68166.50;;;20.85;80.49
44144;BME280;43510;51.920;4.492;2022-08-21T01:18:11;68158.63;;;20.78;80.68
44144;BME280;43510;51.920;4.492;2022-08-21T01:20:40;68158.44;;;20.75;80.79
44144;BME280;43510;51.920;4.492;2022-08-21T01:23:07;68153.25;;;20.68;81.18
44144;BME280;43510;51.920;4.492;2022-08-21T01:25:33;68157.19;;;20.72;81.47
44144;BME280;43510;51.920;4.492;2022-08-21T01:28:02;68158.88;;;20.73;81.24
44144;BME280;43510;51.920;4.492;2022-08-21T01:30:33;68159.59;;;20.76;81.40
44144;BME280;43510;51.920;4.492;2022-08-21T01:33:00;68153.97;;;20.71;81.45
44144;BME280;43510;51.920;4.492;2022-08-21T01:35:25;68150.16;;;20.70;81.51
44144;BME280;43510;51.920;4.492;2022-08-21T01:37:51;68144.38;;;20.63;82.23
44144;BME280;43510;51.920;4.492;2022-08-21T01:40:17;68137.81;;;20.59;82.76
44144;BME280;43510;51.920;4.492;2022-08-21T01:42:45;68133.84;;;20.56;83.07
44144;BME280;43510;51.920;4.492;2022-08-21T01:45:12;68133.16;;;20.53;83.47
44144;BME280;43510;51.920;4.492;2022-08-21T01:47:37;68134.84;;;20.54;83.55
44144;BME280;43510;51.920;4.492;2022-08-21T01:50:06;68123.19;;;20.46;83.69
44144;BME280;43510;51.920;4.492;2022-08-21T01:52:32;68136.38;;;20.53;83.38
44144;BME280;43510;51.920;4.492;2022-08-21T01:54:57;68138.22;;;20.57;83.52
44144;BME280;43510;51.920;4.492;2022-08-21T01:57:23;68134.97;;;20.57;83.21
44144;BME280;43510;51.920;4.492;2022-08-21T01:59:49;68130.66;;;20.55;83.50
44144;BME280;43510;51.920;4.492;2022-08-21T02:02:14;68133.56;;;20.51;84.13
44144;BME280;43510;51.920;4.492;2022-08-21T02:04:40;68115.31;;;20.39;84.83
44144;BME280;43510;51.920;4.492;2022-08-21T02:07:05;68119.50;;;20.38;85.07
44144;BME280;43510;51.920;4.492;2022-08-21T02:09:31;68114.03;;;20.35;85.55
44144;BME280;43510;51.920;4.492;2022-08-21T02:11:56;68113.88;;;20.33;85.98
44144;BME280;43510;51.920;4.492;2022-08-21T02:14:22;68105.16;;;20.30;86.10
44144;BME280;43510;51.920;4.492;2022-08-21T02:16:48;68108.22;;;20.28;86.53
44144;BME280;43510;51.920;4.492;2022-08-21T02:19:14;68095.03;;;20.21;87.06
44144;BME280;43510;51.920;4.492;2022-08-21T02:21:40;68098.81;;;20.22;87.24
44144;BME280;43510;51.920;4.492;2022-08-21T02:24:07;68097.00;;;20.18;87.90
44144;BME280;43510;51.920;4.492;2022-08-21T02:26:33;68084.78;;;20.09;88.13
44144;BME280;43510;51.920;4.492;2022-08-21T02:28:58;68082.53;;;20.07;88.13
44144;BME280;43510;51.920;4.492;2022-08-21T02:31:24;68080.69;;;20.03;88.61
44144;BME280;43510;51.920;4.492;2022-08-21T02:33:50;68074.09;;;20.00;88.75
44144;BME280;43510;51.920;4.492;2022-08-21T02:36:15;68071.84;;;19.97;89.22
44144;BME280;43510;51.920;4.492;2022-08-21T02:38:42;68072.41;;;19.98;89.11
44144;BME280;43510;51.920;4.492;2022-08-21T02:41:14;68073.94;;;19.97;89.23
44144;BME280;43510;51.920;4.492;2022-08-21T02:43:41;68067.19;;;19.91;89.64
44144;BME280;43510;51.920;4.492;2022-08-21T02:46:08;68056.25;;;19.86;90.11
44144;BME280;43510;51.920;4.492;2022-08-21T02:48:35;68054.03;;;19.84;90.43
44144;BME280;43510;51.920;4.492;2022-08-21T02:51:06;68054.25;;;19.79;90.16
44144;BME280;43510;51.920;4.492;2022-08-21T02:53:32;68043.31;;;19.74;89.92
44144;BME280;43510;51.920;4.492;2022-08-21T02:56:02;68041.63;;;19.73;89.82
44144;BME280;43510;51.920;4.492;2022-08-21T02:58:32;68040.38;;;19.69;89.79
44144;BME280;43510;51.920;4.492;2022-08-21T03:00:58;68041.63;;;19.73;89.57
44144;BME280;43510;51.920;4.492;2022-08-21T03:03:27;68042.19;;;19.73;89.80
44144;BME280;43510;51.920;4.492;2022-08-21T03:05:53;68043.59;;;19.70;89.85
44144;BME280;43510;51.920;4.492;2022-08-21T03:08:21;68033.47;;;19.61;89.95
44144;BME280;43510;51.920;4.492;2022-08-21T03:10:50;68026.47;;;19.59;90.15
44144;BME280;43510;51.920;4.492;2022-08-21T03:13:16;68021.28;;;19.52;90.43
44144;BME280;43510;51.920;4.492;2022-08-21T03:15:43;68020.53;;;19.49;90.77
44144;BME280;43510;51.920;4.492;2022-08-21T03:18:10;68015.78;;;19.49;91.26
44144;BME280;43510;51.920;4.492;2022-08-21T03:20:37;68015.22;;;19.49;91.50
44144;BME280;43510;51.920;4.492;2022-08-21T03:23:03;68014.66;;;19.48;91.41
44144;BME280;43510;51.920;4.492;2022-08-21T03:25:31;68017.19;;;19.46;91.85
44144;BME280;43510;51.920;4.492;2022-08-21T03:28:04;68011.88;;;19.46;92.12
44144;BME280;43510;51.920;4.492;2022-08-21T03:30:31;68002.84;;;19.38;92.39
44144;BME280;43510;51.920;4.492;2022-08-21T03:32:58;68005.09;;;19.40;92.49
44144;BME280;43510;51.920;4.492;2022-08-21T03:35:24;68012.66;;;19.42;92.87
44144;BME280;43510;51.920;4.492;2022-08-21T03:37:50;68001.72;;;19.37;92.70
44144;BME280;43510;51.920;4.492;2022-08-21T03:40:16;68002.53;;;19.33;92.87
44144;BME280;43510;51.920;4.492;2022-08-21T03:42:43;67995.97;;;19.29;93.25
44144;BME280;43510;51.920;4.492;2022-08-21T03:45:10;67996.53;;;19.30;93.69
44144;BME280;43510;51.920;4.492;2022-08-21T03:47:35;67992.03;;;19.26;93.91
44144;BME280;43510;51.920;4.492;2022-08-21T03:50:03;67989.22;;;19.23;94.52
44144;BME280;43510;51.920;4.492;2022-08-21T03:52:29;67984.41;;;19.14;94.92
44144;BME280;43510;51.920;4.492;2022-08-21T03:54:55;67976.31;;;19.11;95.51
44144;BME280;43510;51.920;4.492;2022-08-21T03:57:20;67981.75;;;19.14;95.70
44144;BME280;43510;51.920;4.492;2022-08-21T03:59:47;67985.69;;;19.17;95.80
44144;BME280;43510;51.920;4.492;2022-08-21T04:02:13;67977.00;;;19.14;95.72
44144;BME280;43510;51.920;4.492;2022-08-21T04:04:45;67982.31;;;19.14;96.06
44144;BME280;43510;51.920;4.492;2022-08-21T04:07:10;67970.28;;;19.08;96.17
44144;BME280;43510;51.920;4.492;2022-08-21T04:09:35;67972.34;;;19.08;96.68
44144;BME280;43510;51.920;4.492;2022-08-21T04:12:00;67972.06;;;19.03;97.02
44144;BME280;43510;51.920;4.492;2022-08-21T04:14:27;67960.16;;;18.99;97.41
44144;BME280;43510;51.920;4.492;2022-08-21T04:16:52;67969.41;;;19.03;97.71
44144;BME280;43510;51.920;4.492;2022-08-21T04:19:18;67962.97;;;19.02;97.98
44144;BME280;43510;51.920;4.492;2022-08-21T04:21:43;67964.66;;;19.03;97.91
44144;BME280;43510;51.920;4.492;2022-08-21T04:24:09;67971.66;;;19.05;98.23
44144;BME280;43510;51.920;4.492;2022-08-21T04:26:36;67967.47;;;19.06;98.12
44144;BME280;43510;51.920;4.492;2022-08-21T04:29:03;67976.72;;;19.09;97.89
44144;BME280;43510;51.920;4.492;2022-08-21T04:31:32;67975.59;;;19.08;98.19
44144;BME280;43510;51.920;4.492;2022-08-21T04:33:58;67979.66;;;19.14;98.19
44144;BME280;43510;51.920;4.492;2022-08-21T04:36:30;67981.63;;;19.11;98.42
44144;BME280;43510;51.920;4.492;2022-08-21T04:38:56;67972.53;;;19.10;98.43
44144;BME280;43510;51.920;4.492;2022-08-21T04:41:21;67965.22;;;19.04;98.71
44144;BME280;43510;51.920;4.492;2022-08-21T04:43:47;67970.28;;;19.08;99.02
44144;BME280;43510;51.920;4.492;2022-08-21T04:46:12;67979.09;;;19.14;99.03
44144;BME280;43510;51.920;4.492;2022-08-21T04:48:40;67976.88;;;19.12;99.34
44144;BME280;43510;51.920;4.492;2022-08-21T04:51:11;67974.06;;;19.09;99.74
44144;BME280;43510;51.920;4.492;2022-08-21T04:53:41;67976.31;;;19.11;99.78
44144;BME280;43510;51.920;4.492;2022-08-21T04:56:13;67977.56;;;19.15;99.45
44144;BME280;43510;51.920;4.492;2022-08-21T04:58:41;67988.66;;;19.23;98.82
44144;BME280;43510;51.920;4.492;2022-08-21T05:01:11;67987.53;;;19.22;98.71
44144;BME280;43510;51.920;4.492;2022-08-21T05:03:38;67989.94;;;19.26;98.53
44144;BME280;43510;51.920;4.492;2022-08-21T05:06:07;67995.41;;;19.29;98.15
44144;BME280;43510;51.920;4.492;2022-08-21T05:08:34;67994.44;;;19.30;98.11
44144;BME280;43510;51.920;4.492;2022-08-21T05:11:02;67996.66;;;19.32;98.07
44144;BME280;43510;51.920;4.492;2022-08-21T05:13:28;68007.34;;;19.42;97.98
44144;BME280;43510;51.920;4.492;2022-08-21T05:15:53;68013.97;;;19.45;97.37
44144;BME280;43510;51.920;4.492;2022-08-21T05:18:19;68020.72;;;19.51;96.97
44144;BME280;43510;51.920;4.492;2022-08-21T05:20:45;68027.28;;;19.55;96.96
44144;BME280;43510;51.920;4.492;2022-08-21T05:23:12;68034.03;;;19.61;96.92
44144;BME280;43510;51.920;4.492;2022-08-21T05:25:38;68041.91;;;19.68;96.60
44144;BME280;43510;51.920;4.492;2022-08-21T05:28:04;68059.47;;;19.86;96.13
44144;BME280;43510;51.920;4.492;2022-08-21T05:30:30;68076.50;;;20.04;95.16
44144;BME280;43510;51.920;4.492;2022-08-21T05:32:58;68097.69;;;20.21;94.22
44144;BME280;43510;51.920;4.492;2022-08-21T05:35:23;68105.16;;;20.30;93.49
44144;BME280;43510;51.920;4.492;2022-08-21T05:37:50;68122.72;;;20.38;93.07
44144;BME280;43510;51.920;4.492;2022-08-21T05:40:15;68120.78;;;20.42;92.78
44144;BME280;43510;51.920;4.492;2022-08-21T05:42:41;68124.31;;;20.47;92.74
44144;BME280;43510;51.920;4.492;2022-08-21T05:45:06;68136.94;;;20.54;92.05
44144;BME280;43510;51.920;4.492;2022-08-21T05:47:31;68136.09;;;20.58;91.59
44144;BME280;43510;51.920;4.492;2022-08-21T05:49:58;68146.25;;;20.67;91.26
44144;BME280;43510;51.920;4.492;2022-08-21T05:52:23;68156.06;;;20.71;90.87
44144;BME280;43510;51.920;4.492;2022-08-21T05:54:49;68156.91;;;20.76;90.26
44144;BME280;43510;51.920;4.492;2022-08-21T05:57:14;68169.84;;;20.88;89.87
44144;BME280;43510;51.920;4.492;2022-08-21T05:59:40;68186.59;;;21.01;89.23
44144;BME280;43510;51.920;4.492;2022-08-21T06:02:05;68196.56;;;21.07;89.39
44144;BME280;43510;51.920;4.492;2022-08-21T06:04:37;68194.03;;;21.10;88.95
44144;BME280;43510;51.920;4.492;2022-08-21T06:07:03;68205.47;;;21.23;87.87
44144;BME280;43510;51.920;4.492;2022-08-21T06:09:29;68223.31;;;21.36;87.52
44144;BME280;43510;51.920;4.492;2022-08-21T06:11:55;68242.44;;;21.53;86.68
44144;BME280;43510;51.920;4.492;2022-08-21T06:14:20;68258.63;;;21.66;86.05
44144;BME280;43510;51.920;4.492;2022-08-21T06:16:45;68269.88;;;21.76;85.30
44144;BME280;43510;51.920;4.492;2022-08-21T06:19:11;68275.09;;;21.83;84.99
44144;BME280;43510;51.920;4.492;2022-08-21T06:21:37;68290.88;;;21.97;84.42
44144;BME280;43510;51.920;4.492;2022-08-21T06:24:03;68313.09;;;22.12;83.14
44144;BME280;43510;51.920;4.492;2022-08-21T06:26:29;68327.34;;;22.27;82.40
44144;BME280;43510;51.920;4.492;2022-08-21T06:28:55;68336.91;;;22.36;82.19
44144;BME280;43510;51.920;4.492;2022-08-21T06:31:25;68342.69;;;22.44;81.45
44144;BME280;43510;51.920;4.492;2022-08-21T06:33:51;68353.66;;;22.49;80.66
44144;BME280;43510;51.920;4.492;2022-08-21T06:36:17;68366.31;;;22.65;79.60
44144;BME280;43510;51.920;4.492;2022-08-21T06:38:42;68402.41;;;22.97;78.96
44144;BME280;43510;51.920;4.492;2022-08-21T06:41:08;68436.63;;;23.26;77.50
44144;BME280;43510;51.920;4.492;2022-08-21T06:43:34;68468.78;;;23.54;76.00
44144;BME280;43510;51.920;4.492;2022-08-21T06:45:59;68480.19;;;23.67;74.96
44144;BME280;43510;51.920;4.492;2022-08-21T06:48:25;68509.50;;;23.93;74.18
44144;BME280;43510;51.920;4.492;2022-08-21T06:50:52;68521.34;;;24.04;72.52
44144;BME280;43510;51.920;4.492;2022-08-21T06:53:20;68528.66;;;24.11;72.51
44144;BME280;43510;51.920;4.492;2022-08-21T06:55:47;68535.28;;;24.14;71.74
44144;BME280;43510;51.920;4.492;2022-08-21T06:58:13;68521.91;;;24.05;72.08
44144;BME280;43510;51.920;4.492;2022-08-21T07:00:41;68508.38;;;23.92;72.80
44144;BME280;43510;51.920;4.492;2022-08-21T07:03:06;68495.00;;;23.83;73.42
44144;BME280;43510;51.920;4.492;2022-08-21T07:05:32;68497.53;;;23.80;73.85
44144;BME280;43510;51.920;4.492;2022-08-21T07:07:57;68495.81;;;23.79;74.24
44144;BME280;43510;51.920;4.492;2022-08-21T07:10:24;68499.06;;;23.79;74.53
44144;BME280;43510;51.920;4.492;2022-08-21T07:12:50;68494.84;;;23.80;74.37
44144;BME280;43510;51.920;4.492;2022-08-21T07:15:21;68501.59;;;23.86;74.59
44144;BME280;43510;51.920;4.492;2022-08-21T07:17:47;68498.94;;;23.86;74.41
44144;BME280;43510;51.920;4.492;2022-08-21T07:20:15;68512.19;;;23.93;74.22
44144;BME280;43510;51.920;4.492;2022-08-21T07:22:42;68514.44;;;23.95;73.81
44144;BME280;43510;51.920;4.492;2022-08-21T07:25:07;68515.13;;;23.98;73.92
44144;BME280;43510;51.920;4.492;2022-08-21T07:27:37;68523.59;;;24.06;74.21
44144;BME280;43510;51.920;4.492;2022-08-21T07:30:04;68525.72;;;24.06;74.34
44144;BME280;43510;51.920;4.492;2022-08-21T07:32:30;68527.25;;;24.05;74.16
44144;BME280;43510;51.920;4.492;2022-08-21T07:34:57;68514.88;;;23.93;74.66
44144;BME280;43510;51.920;4.492;2022-08-21T07:37:23;68520.78;;;24.04;74.52
44144;BME280;43510;51.920;4.492;2022-08-21T07:39:49;68551.81;;;24.31;73.33
44144;BME280;43510;51.920;4.492;2022-08-21T07:42:16;68610.34;;;24.81;71.86
44144;BME280;43510;51.920;4.492;2022-08-21T07:44:42;68650.00;;;25.19;69.78
44144;BME280;43510;51.920;4.492;2022-08-21T07:47:07;68662.13;;;25.35;69.33
44144;BME280;43510;51.920;4.492;2022-08-21T07:49:33;68696.84;;;25.62;67.67
44144;BME280;43510;51.920;4.492;2022-08-21T07:51:58;68728.31;;;25.87;66.40
44144;BME280;43510;51.920;4.492;2022-08-21T07:54:25;68720.56;;;25.83;65.92
44144;BME280;43510;51.920;4.492;2022-08-21T07:56:51;68709.84;;;25.73;66.02
44144;BME280;43510;51.920;4.492;2022-08-21T07:59:16;68712.53;;;25.73;66.10
44144;BME280;43510;51.920;4.492;2022-08-21T08:01:43;68705.19;;;25.67;66.08
44144;BME280;43510;51.920;4.492;2022-08-21T08:04:08;68695.72;;;25.60;66.37
44144;BME280;43510;51.920;4.492;2022-08-21T08:06:34;68697.56;;;25.55;67.02
44144;BME280;43510;51.920;4.492;2022-08-21T08:08:59;68691.19;;;25.56;67.00
44144;BME280;43510;51.920;4.492;2022-08-21T08:11:29;68701.38;;;25.66;66.38
44144;BME280;43510;51.920;4.492;2022-08-21T08:13:55;68696.56;;;25.66;66.07
44144;BME280;43510;51.920;4.492;2022-08-21T08:16:23;68705.88;;;25.70;65.71
44144;BME280;43510;51.920;4.492;2022-08-21T08:18:48;68722.00;;;25.79;65.78
44144;BME280;43510;51.920;4.492;2022-08-21T08:21:14;68730.03;;;25.89;65.66
44144;BME280;43510;51.920;4.492;2022-08-21T08:23:40;68746.66;;;26.09;64.88
44144;BME280;43510;51.920;4.492;2022-08-21T08:26:05;68755.13;;;26.16;64.47
44144;BME280;43510;51.920;4.492;2022-08-21T08:28:32;68752.63;;;26.09;63.61
44144;BME280;43510;51.920;4.492;2022-08-21T08:30:59;68726.06;;;25.85;63.88
44144;BME280;43510;51.920;4.492;2022-08-21T08:33:24;68718.28;;;25.81;63.91
44144;BME280;43510;51.920;4.492;2022-08-21T08:35:50;68738.06;;;25.98;64.00
44144;BME280;43510;51.920;4.492;2022-08-21T08:38:17;68756.13;;;26.15;63.36
44144;BME280;43510;51.920;4.492;2022-08-21T08:44:16;68805.00;;;26.54;62.11
44144;BME280;43510;51.920;4.492;2022-08-21T08:46:47;68801.91;;;26.56;60.68
44144;BME280;43510;51.920;4.492;2022-08-21T08:49:17;68812.91;;;26.61;59.94
44144;BME280;43510;51.920;4.492;2022-08-21T08:51:53;68822.22;;;26.74;59.04
44144;BME280;43510;51.920;4.492;2022-08-21T08:54:44;68854.31;;;27.00;58.27
44144;BME280;43510;51.920;4.492;2022-08-21T08:57:19;68880.31;;;27.23;57.38
44144;BME280;43510;51.920;4.492;2022-08-21T08:59:48;68934.16;;;27.74;55.87
44144;BME280;43510;51.920;4.492;2022-08-21T09:02:16;68983.25;;;28.16;54.35
44144;BME280;43510;51.920;4.492;2022-08-21T09:04:44;69006.56;;;28.39;53.72
44144;BME280;43510;51.920;4.492;2022-08-21T09:13:07;69018.88;;;28.48;53.14
44144;BME280;43510;51.920;4.492;2022-08-21T09:15:55;69020.81;;;28.54;52.29
44144;BME280;43510;51.920;4.492;2022-08-21T09:21:22;69009.97;;;28.42;51.52
44144;BME280;43510;51.920;4.492;2022-08-21T09:26:30;69037.41;;;28.62;50.68
44144;BME280;43510;51.920;4.492;2022-08-21T09:28:58;69038.09;;;28.65;49.89
44144;BME280;43510;51.920;4.492;2022-08-21T09:31:30;69041.63;;;28.70;49.34
44144;BME280;43510;51.920;4.492;2022-08-21T09:34:11;69048.44;;;28.76;49.11
44144;BME280;43510;51.920;4.492;2022-08-21T09:36:47;69037.09;;;28.66;49.39
44144;BME280;43510;51.920;4.492;2022-08-21T09:39:21;69020.56;;;28.49;50.56
44144;BME280;43510;51.920;4.492;2022-08-21T09:41:55;68994.69;;;28.28;50.80
44144;BME280;43510;51.920;4.492;2022-08-21T09:44:26;68983.38;;;28.18;50.77
44144;BME280;43510;51.920;4.492;2022-08-21T09:46:52;69003.16;;;28.36;50.23
44144;BME280;43510;51.920;4.492;2022-08-21T09:49:39;69009.97;;;28.42;49.87
44144;BME280;43510;51.920;4.492;2022-08-21T09:52:26;69007.53;;;28.37;49.78
44144;BME280;43510;51.920;4.492;2022-08-21T09:54:54;68995.81;;;28.29;49.36
44144;BME280;43510;51.920;4.492;2022-08-21T09:57:26;69003.16;;;28.36;49.40
44144;BME280;43510;51.920;4.492;2022-08-21T10:00:43;69016.19;;;28.48;48.26
44144;BME280;43510;51.920;4.492;2022-08-21T10:03:30;69041.06;;;28.70;46.15
44144;BME280;43510;51.920;4.492;2022-08-21T10:06:02;69038.22;;;28.67;45.99
44144;BME280;43510;51.920;4.492;2022-08-21T10:08:32;69037.09;;;28.66;45.36
44144;BME280;43510;51.920;4.492;2022-08-21T10:16:08;69041.63;;;28.70;44.39
44144;BME280;43510;51.920;4.492;2022-08-21T10:18:48;69055.22;;;28.83;43.84
44144;BME280;43510;51.920;4.492;2022-08-21T10:21:22;69073.88;;;28.99;42.85
44144;BME280;43510;51.920;4.492;2022-08-21T10:24:04;69080.13;;;29.05;42.62
44144;BME280;43510;51.920;4.492;2022-08-21T10:32:39;69120.19;;;29.38;41.50
44144;BME280;43510;51.920;4.492;2022-08-21T10:35:27;69119.50;;;29.35;40.93
44144;BME280;43510;51.920;4.492;2022-08-21T10:41:08;69113.94;;;29.33;41.39
44144;BME280;43510;51.920;4.492;2022-08-21T10:46:53;69151.88;;;29.67;40.84
44144;BME280;43510;51.920;4.492;2022-08-21T10:54:47;69151.44;;;29.69;40.64
44144;BME280;43510;51.920;4.492;2022-08-21T10:57:31;69161.63;;;29.78;40.07
44144;BME280;43510;51.920;4.492;2022-08-21T11:00:06;69183.72;;;29.97;39.82
44144;BME280;43510;51.920;4.492;2022-08-21T11:02:46;69182.03;;;29.96;38.89
44144;BME280;43510;51.920;4.492;2022-08-21T11:05:25;69176.78;;;29.89;38.57
44144;BME280;43510;51.920;4.492;2022-08-21T11:08:12;69189.25;;;30.00;38.79
44144;BME280;43510;51.920;4.492;2022-08-21T11:10:44;69196.19;;;30.09;38.68
44144;BME280;43510;51.920;4.492;2022-08-21T11:13:21;69201.84;;;30.14;38.32
44144;BME280;43510;51.920;4.492;2022-08-21T11:15:56;69232.03;;;30.33;37.90
44144;BME280;43510;51.920;4.492;2022-08-21T11:18:33;69226.63;;;30.33;37.49
44144;BME280;43510;51.920;4.492;2022-08-21T11:23:42;69198.06;;;30.03;37.77
44144;BME280;43510;51.920;4.492;2022-08-21T11:26:18;69184.84;;;29.98;37.47
44144;BME280;43510;51.920;4.492;2022-08-21T11:29:04;69184.84;;;29.98;37.74
44144;BME280;43510;51.920;4.492;2022-08-21T11:31:45;69182.47;;;29.94;37.18
44144;BME280;43510;51.920;4.492;2022-08-21T11:40:03;69169.56;;;29.85;36.89
44144;BME280;43510;51.920;4.492;2022-08-21T11:42:38;69170.81;;;29.88;35.94
44144;BME280;43510;51.920;4.492;2022-08-21T11:50:18;69186.88;;;29.95;36.02
44144;BME280;43510;51.920;4.492;2022-08-21T11:52:50;69193.78;;;30.04;35.36
44144;BME280;43510;51.920;4.492;2022-08-21T11:55:35;69150.31;;;29.68;36.26
44144;BME280;43510;51.920;4.492;2022-08-21T11:58:14;69156.53;;;29.73;35.92
44144;BME280;43510;51.920;4.492;2022-08-21T12:00:47;69135.47;;;29.52;36.01
44144;BME280;43510;51.920;4.492;2022-08-21T12:03:15;69137.84;;;29.56;36.08
44144;BME280;43510;51.920;4.492;2022-08-21T12:05:51;69097.97;;;29.16;36.87
44144;BME280;43510;51.920;4.492;2022-08-21T12:11:24;69159.38;;;29.76;36.05
44144;BME280;43510;51.920;4.492;2022-08-21T12:16:46;69157.66;;;29.74;35.81
44144;BME280;43510;51.920;4.492;2022-08-21T12:19:32;69167.16;;;29.80;35.60
44144;BME280;43510;51.920;4.492;2022-08-21T12:22:14;69157.53;;;29.72;35.43
44144;BME280;43510;51.920;4.492;2022-08-21T12:24:49;69138.31;;;29.54;35.46
44144;BME280;43510;51.920;4.492;2022-08-21T12:27:44;69144.53;;;29.60;34.95
44144;BME280;43510;51.920;4.492;2022-08-21T12:30:35;69145.22;;;29.63;35.22
44144;BME280;43510;51.920;4.492;2022-08-21T12:33:17;69131.50;;;29.48;35.29
44144;BME280;43510;51.920;4.492;2022-08-21T12:35:48;69135.03;;;29.54;35.70
44144;BME280;43510;51.920;4.492;2022-08-21T12:38:27;69120.19;;;29.38;35.63
44144;BME280;43510;51.920;4.492;2022-08-21T12:44:22;69096.53;;;29.19;35.06
44144;BME280;43510;51.920;4.492;2022-08-21T12:50:08;69086.34;;;29.10;35.79
44144;BME280;43510;51.920;4.492;2022-08-21T12:52:48;69103.88;;;29.26;36.12
44144;BME280;43510;51.920;4.492;2022-08-21T12:55:27;69124.72;;;29.42;35.73
44144;BME280;43510;51.920;4.492;2022-08-21T12:57:54;69133.75;;;29.50;35.83
44144;BME280;43510;51.920;4.492;2022-08-21T13:00:22;69157.09;;;29.74;35.80
44144;BME280;43510;51.920;4.492;2022-08-21T13:02:52;69189.25;;;30.00;35.70
44144;BME280;43510;51.920;4.492;2022-08-21T13:05:39;69227.91;;;30.37;35.67
44144;BME280;43510;51.920;4.492;2022-08-21T13:08:07;69221.09;;;30.31;35.86
44144;BME280;43510;51.920;4.492;2022-08-21T13:10:35;69197.19;;;30.07;36.11
44144;BME280;43510;51.920;4.492;2022-08-21T13:13:05;69185.44;;;29.99;36.51
44144;BME280;43510;51.920;4.492;2022-08-21T13:15:33;69186.88;;;29.95;37.06
44144;BME280;43510;51.920;4.492;2022-08-21T13:18:00;69173.69;;;29.91;37.22
44144;BME280;43510;51.920;4.492;2022-08-21T13:20:34;69168.44;;;29.84;37.80
44144;BME280;43510;51.920;4.492;2022-08-21T13:23:19;69159.25;;;29.73;37.88
44144;BME280;43510;51.920;4.492;2022-08-21T13:25:45;69145.22;;;29.63;37.38
44144;BME280;43510;51.920;4.492;2022-08-21T13:28:12;69122.59;;;29.43;37.94
44144;BME280;43510;51.920;4.492;2022-08-21T13:30:43;69099.91;;;29.22;38.26
44144;BME280;43510;51.920;4.492;2022-08-21T13:33:10;69077.84;;;29.03;38.69
44144;BME280;43510;51.920;4.492;2022-08-21T13:38:24;69074.56;;;29.02;38.88
44144;BME280;43510;51.920;4.492;2022-08-21T13:41:03;69083.50;;;29.08;38.48
44144;BME280;43510;51.920;4.492;2022-08-21T13:43:35;69066.97;;;28.91;38.92
44144;BME280;43510;51.920;4.492;2022-08-21T13:46:09;69054.09;;;28.81;39.11
44144;BME280;43510;51.920;4.492;2022-08-21T13:48:37;69055.22;;;28.83;39.18
44144;BME280;43510;51.920;4.492;2022-08-21T13:51:04;69071.63;;;28.97;38.79
44144;BME280;43510;51.920;4.492;2022-08-21T13:53:32;69089.03;;;29.10;38.82
44144;BME280;43510;51.920;4.492;2022-08-21T13:55:59;69091.88;;;29.13;38.14
44144;BME280;43510;51.920;4.492;2022-08-21T13:58:42;69100.50;;;29.23;38.64
44144;BME280;43510;51.920;4.492;2022-08-21T14:01:21;69109.28;;;29.26;38.03
44144;BME280;43510;51.920;4.492;2022-08-21T14:03:49;69096.41;;;29.17;38.00
44144;BME280;43510;51.920;4.492;2022-08-21T14:06:18;69094.81;;;29.18;37.72
44144;BME280;43510;51.920;4.492;2022-08-21T14:09:09;69096.53;;;29.19;38.08
44144;BME280;43510;51.920;4.492;2022-08-21T14:11:36;69096.53;;;29.19;38.06
44144;BME280;43510;51.920;4.492;2022-08-21T14:14:25;69106.72;;;29.29;38.19
44144;BME280;43510;51.920;4.492;2022-08-21T14:17:01;69118.50;;;29.37;37.98
44144;BME280;43510;51.920;4.492;2022-08-21T14:19:49;69122.00;;;29.42;37.32